createdAt,value
2019-05-30T00:01:56.255Z,92.30
2019-05-30T00:04:26.369Z,92.50
2019-05-30T00:06:56.793Z,92.90
2019-05-30T00:09:24.951Z,93.20
2019-05-30T00:11:54.637Z,93.50
2019-05-30T00:14:23.233Z,93.30
2019-05-30T00:16:51.696Z,93.40
2019-05-30T00:19:20.158Z,93.80
2019-05-30T00:21:49.011Z,93.90
2019-05-30T00:24:17.548Z,94.20
2019-05-30T00:26:45.984Z,94.40
2019-05-30T00:29:14.421Z,94.40
2019-05-30T00:31:42.856Z,94.20
2019-05-30T00:34:11.274Z,94.90
2019-05-30T00:36:39.692Z,94.90
2019-05-30T00:39:08.424Z,95.30
2019-05-30T00:41:36.831Z,95.50
2019-05-30T00:44:06.298Z,96.20
2019-05-30T00:46:34.859Z,96.40
2019-05-30T00:49:04.438Z,96.80
2019-05-30T00:51:32.984Z,97.00
2019-05-30T00:54:02.803Z,97.10
2019-05-30T00:56:31.374Z,97.40
2019-05-30T00:59:00.655Z,97.60
2019-05-30T01:01:29.280Z,98.20
2019-05-30T01:03:58.682Z,98.50
2019-05-30T01:06:27.302Z,98.50
2019-05-30T01:08:56.963Z,98.40
2019-05-30T01:11:25.418Z,98.60
2019-05-30T01:13:53.843Z,98.70
2019-05-30T01:16:22.262Z,98.80
2019-05-30T01:18:50.708Z,98.60
2019-05-30T01:21:19.200Z,97.70
2019-05-30T01:23:47.640Z,97.60
2019-05-30T01:26:16.060Z,97.10
2019-05-30T01:28:44.531Z,97.50
2019-05-30T01:31:12.969Z,96.90
2019-05-30T01:33:41.396Z,96.70
2019-05-30T01:36:09.845Z,96.70
2019-05-30T01:38:38.340Z,96.30
2019-05-30T01:41:07.974Z,96.50
2019-05-30T01:43:36.630Z,96.40
2019-05-30T01:46:06.129Z,96.30
2019-05-30T01:48:34.706Z,96.20
2019-05-30T01:51:04.495Z,96.40
2019-05-30T01:53:33.155Z,96.30
2019-05-30T01:56:02.625Z,96.40
2019-05-30T01:58:31.404Z,96.60
2019-05-30T02:01:13.536Z,96.70
2019-05-30T02:03:30.246Z,97.00
2019-05-30T02:05:58.925Z,97.00
2019-05-30T02:08:27.599Z,96.90
2019-05-30T02:10:56.046Z,97.40
2019-05-30T02:13:24.589Z,97.90
2019-05-30T02:15:53.048Z,98.10
2019-05-30T02:18:21.502Z,98.10
2019-05-30T02:20:49.906Z,98.20
2019-05-30T02:23:18.385Z,98.30
2019-05-30T02:25:46.855Z,98.50
2019-05-30T02:28:15.285Z,98.60
2019-05-30T02:30:43.712Z,99.00
2019-05-30T02:33:12.996Z,98.50
2019-05-30T02:35:41.911Z,98.70
2019-05-30T02:38:11.832Z,98.60
2019-05-30T02:40:40.699Z,98.50
2019-05-30T02:43:10.428Z,98.30
2019-05-30T02:45:39.317Z,97.90
2019-05-30T02:48:09.679Z,97.80
2019-05-30T02:50:37.941Z,98.00
2019-05-30T02:53:07.977Z,98.40
2019-05-30T02:55:36.518Z,98.50
2019-05-30T02:58:06.201Z,98.80
2019-05-30T03:00:36.740Z,98.50
2019-05-30T03:03:06.742Z,99.10
2019-05-30T03:05:35.669Z,98.40
2019-05-30T03:08:06.463Z,98.30
2019-05-30T03:10:34.680Z,99.30
2019-05-30T03:13:04.096Z,98.60
2019-05-30T03:15:34.456Z,98.30
2019-05-30T03:18:04.492Z,98.20
2019-05-30T03:20:33.145Z,98.40
2019-05-30T03:23:03.194Z,98.90
2019-05-30T03:25:31.790Z,98.50
2019-05-30T03:28:00.257Z,98.60
2019-05-30T03:30:30.203Z,98.30
2019-05-30T03:33:06.691Z,98.60
2019-05-30T03:35:32.939Z,99.00
2019-05-30T03:37:59.225Z,98.80
2019-05-30T03:40:29.797Z,98.90
2019-05-30T03:42:58.063Z,98.60
2019-05-30T03:45:27.249Z,99.10
2019-05-30T03:47:58.744Z,98.90
2019-05-30T03:50:29.976Z,98.90
2019-05-30T03:52:59.123Z,99.40
2019-05-30T03:55:29.487Z,99.20
2019-05-30T03:58:12.205Z,98.90
2019-05-30T04:00:51.158Z,98.80
2019-05-30T04:03:25.536Z,98.90
2019-05-30T04:05:57.133Z,98.70
2019-05-30T04:08:28.660Z,98.80
2019-05-30T04:11:00.244Z,99.20
2019-05-30T04:13:34.535Z,98.60
2019-05-30T04:16:02.960Z,97.90
2019-05-30T04:18:31.374Z,98.20
2019-05-30T04:20:59.803Z,98.00
2019-05-30T04:23:28.219Z,97.70
2019-05-30T04:26:00.297Z,97.80
2019-05-30T04:28:26.805Z,98.10
2019-05-30T04:30:55.372Z,97.80
2019-05-30T04:33:32.706Z,97.90
2019-05-30T04:35:54.009Z,97.30
2019-05-30T04:38:22.429Z,97.40
2019-05-30T04:40:50.862Z,97.20
2019-05-30T04:43:20.263Z,97.20
2019-05-30T04:45:48.905Z,97.20
2019-05-30T04:48:18.602Z,97.40
2019-05-30T04:50:47.685Z,97.10
2019-05-30T04:53:16.461Z,97.20
2019-05-30T04:55:45.380Z,96.90
2019-05-30T04:58:15.262Z,96.70
2019-05-30T05:00:43.946Z,96.60
2019-05-30T05:03:13.054Z,96.60
2019-05-30T05:05:41.669Z,96.60
2019-05-30T05:08:11.635Z,96.80
2019-05-30T05:10:40.302Z,96.60
2019-05-30T05:13:08.763Z,96.30
2019-05-30T05:15:37.213Z,96.80
2019-05-30T05:18:05.721Z,96.40
2019-05-30T05:20:36.220Z,96.80
2019-05-30T05:23:04.410Z,96.10
2019-05-30T05:25:32.901Z,96.10
2019-05-30T05:28:01.381Z,95.70
2019-05-30T05:30:29.857Z,95.40
2019-05-30T05:32:58.300Z,95.20
2019-05-30T05:35:26.715Z,94.90
2019-05-30T05:37:55.147Z,94.80
2019-05-30T05:40:24.405Z,94.90
2019-05-30T05:42:52.971Z,94.80
2019-05-30T05:45:22.817Z,94.80
2019-05-30T05:47:53.103Z,94.70
2019-05-30T05:50:22.546Z,94.00
2019-05-30T05:52:51.172Z,93.50
2019-05-30T05:55:20.776Z,93.80
2019-05-30T05:57:49.484Z,93.50
2019-05-30T06:00:18.970Z,93.50
2019-05-30T06:02:54.707Z,93.10
2019-05-30T06:05:24.266Z,93.00
2019-05-30T06:07:52.902Z,93.30
2019-05-30T06:10:21.883Z,93.00
2019-05-30T06:12:50.372Z,92.80
2019-05-30T06:15:18.841Z,92.90
2019-05-30T06:17:47.317Z,92.40
2019-05-30T06:20:17.370Z,92.60
2019-05-30T06:22:46.049Z,92.60
2019-05-30T06:25:14.919Z,92.00
2019-05-30T06:27:43.810Z,91.30
2019-05-30T06:30:12.467Z,91.30
2019-05-30T06:32:40.908Z,90.80
2019-05-30T06:35:09.464Z,90.10
2019-05-30T06:37:37.907Z,89.70
2019-05-30T06:40:07.182Z,89.70
2019-05-30T06:42:36.228Z,88.90
2019-05-30T06:45:08.911Z,87.80
2019-05-30T06:47:37.359Z,86.60
2019-05-30T06:50:08.691Z,87.40
2019-05-30T06:52:37.106Z,86.80
2019-05-30T06:55:06.345Z,87.30
2019-05-30T06:57:34.779Z,86.30
2019-05-30T07:00:04.793Z,85.30
2019-05-30T07:02:33.246Z,85.30
2019-05-30T07:05:02.421Z,86.80
2019-05-30T07:07:31.599Z,84.30
2019-05-30T07:10:00.479Z,81.90
2019-05-30T07:12:29.021Z,81.90
2019-05-30T07:14:57.462Z,85.10
2019-05-30T07:17:25.914Z,81.20
2019-05-30T07:19:54.343Z,79.60
2019-05-30T07:22:23.522Z,79.70
2019-05-30T07:24:52.070Z,80.60
2019-05-30T07:27:20.523Z,78.90
2019-05-30T07:29:48.969Z,77.60
2019-05-30T07:32:17.394Z,76.30
2019-05-30T07:34:46.197Z,76.10
2019-05-30T07:37:14.760Z,76.30
2019-05-30T07:39:43.212Z,76.10
2019-05-30T07:42:11.691Z,77.50
2019-05-30T07:44:40.167Z,76.80
2019-05-30T07:47:08.583Z,76.40
2019-05-30T07:49:37.037Z,76.50
2019-05-30T07:52:05.660Z,74.60
2019-05-30T07:54:35.180Z,72.00
2019-05-30T07:57:04.191Z,72.70
2019-05-30T07:59:32.667Z,71.30
2019-05-30T08:02:01.130Z,71.20
2019-05-30T08:04:29.605Z,71.70
2019-05-30T08:06:58.025Z,70.30
2019-05-30T08:09:26.853Z,70.30
2019-05-30T08:11:55.467Z,70.60
2019-05-30T08:14:23.937Z,69.50
2019-05-30T08:16:55.501Z,68.40
2019-05-30T08:19:23.937Z,68.80
2019-05-30T08:21:52.437Z,69.60
2019-05-30T08:24:20.868Z,69.80
2019-05-30T08:26:49.328Z,69.90
2019-05-30T08:29:17.745Z,68.90
2019-05-30T08:31:46.193Z,68.10
2019-05-30T08:34:14.639Z,69.10
2019-05-30T08:36:43.072Z,68.50
2019-05-30T08:39:11.614Z,69.00
2019-05-30T08:41:41.023Z,68.10
2019-05-30T08:44:09.477Z,67.80
2019-05-30T08:46:37.992Z,68.60
2019-05-30T08:49:06.497Z,67.90
2019-05-30T08:51:36.194Z,66.20
2019-05-30T08:54:05.233Z,66.20
2019-05-30T08:56:34.503Z,65.70
2019-05-30T08:59:03.161Z,65.20
2019-05-30T09:01:31.660Z,65.50
2019-05-30T09:04:00.188Z,65.10
2019-05-30T09:06:28.640Z,64.40
2019-05-30T09:08:57.122Z,63.20
2019-05-30T09:11:25.689Z,63.40
2019-05-30T09:13:54.150Z,63.10
2019-05-30T09:16:22.642Z,63.20
2019-05-30T09:18:51.103Z,62.50
2019-05-30T09:21:19.665Z,62.40
2019-05-30T09:23:48.229Z,61.60
2019-05-30T09:26:16.851Z,61.00
2019-05-30T09:28:46.272Z,61.50
2019-05-30T09:31:14.902Z,60.90
2019-05-30T09:33:44.524Z,60.00
2019-05-30T09:36:14.050Z,59.10
2019-05-30T09:38:43.549Z,58.80
2019-05-30T09:41:12.171Z,59.20
2019-05-30T09:43:41.604Z,58.40
2019-05-30T09:46:10.802Z,58.70
2019-05-30T09:48:40.174Z,58.20
2019-05-30T09:51:09.392Z,57.60
2019-05-30T09:53:37.817Z,57.50
2019-05-30T09:56:06.255Z,58.00
2019-05-30T09:58:34.671Z,56.80
2019-05-30T10:01:03.177Z,57.50
2019-05-30T10:03:31.699Z,57.70
2019-05-30T10:06:08.036Z,57.40
2019-05-30T10:08:36.524Z,57.80
2019-05-30T10:11:05.088Z,56.30
2019-05-30T10:13:33.525Z,55.50
2019-05-30T10:16:01.950Z,55.90
2019-05-30T10:18:30.415Z,56.00
2019-05-30T10:20:59.626Z,55.70
2019-05-30T10:23:28.062Z,55.70
2019-05-30T10:25:57.594Z,54.20
2019-05-30T10:28:26.199Z,54.20
2019-05-30T10:30:58.982Z,54.20
2019-05-30T10:33:24.770Z,55.30
2019-05-30T10:35:54.103Z,54.10
2019-05-30T10:38:22.526Z,54.70
2019-05-30T10:40:52.132Z,54.90
2019-05-30T10:43:20.858Z,54.00
2019-05-30T10:45:53.409Z,54.60
2019-05-30T10:48:22.164Z,53.90
2019-05-30T10:50:50.628Z,53.30
2019-05-30T10:53:19.098Z,52.50
2019-05-30T10:55:48.215Z,53.20
2019-05-30T10:58:16.755Z,53.10
2019-05-30T11:00:55.731Z,52.90
2019-05-30T11:03:25.342Z,53.20
2019-05-30T11:05:59.742Z,52.90
2019-05-30T11:08:31.526Z,52.50
2019-05-30T11:10:59.940Z,52.10
2019-05-30T11:13:28.378Z,52.20
2019-05-30T11:15:57.430Z,50.60
2019-05-30T11:18:28.753Z,50.50
2019-05-30T11:20:58.636Z,49.80
2019-05-30T11:23:27.287Z,49.80
2019-05-30T11:25:56.725Z,49.60
2019-05-30T11:28:25.329Z,49.90
2019-05-30T11:30:54.803Z,50.20
2019-05-30T11:33:23.385Z,49.70
2019-05-30T11:35:52.880Z,50.20
2019-05-30T11:38:21.612Z,49.20
2019-05-30T11:40:51.237Z,49.60
2019-05-30T11:43:19.950Z,49.10
2019-05-30T11:45:49.711Z,50.10
2019-05-30T11:48:18.266Z,49.70
2019-05-30T11:50:46.696Z,49.30
2019-05-30T11:53:15.142Z,48.70
2019-05-30T11:55:43.555Z,49.50
2019-05-30T11:58:11.982Z,48.70
2019-05-30T12:00:40.392Z,49.40
2019-05-30T12:03:08.819Z,48.90
2019-05-30T12:05:38.279Z,49.20
2019-05-30T12:08:06.760Z,49.30
2019-05-30T12:10:35.254Z,48.90
2019-05-30T12:13:03.694Z,48.70
2019-05-30T12:15:32.126Z,48.60
2019-05-30T12:18:02.458Z,47.90
2019-05-30T12:20:30.727Z,48.10
2019-05-30T12:23:00.010Z,47.60
2019-05-30T12:25:28.460Z,47.60
2019-05-30T12:27:58.063Z,47.90
2019-05-30T12:30:27.068Z,47.50
2019-05-30T12:32:56.400Z,47.60
2019-05-30T12:35:25.040Z,48.20
2019-05-30T12:37:58.787Z,48.60
2019-05-30T12:40:23.904Z,48.80
2019-05-30T12:42:55.855Z,48.40
2019-05-30T12:45:22.674Z,48.10
2019-05-30T12:47:51.120Z,47.50
2019-05-30T12:50:21.274Z,47.60
2019-05-30T12:52:49.701Z,47.80
2019-05-30T12:55:18.275Z,47.50
2019-05-30T12:57:46.759Z,47.90
2019-05-30T13:00:21.269Z,47.80
2019-05-30T13:02:49.703Z,48.10
2019-05-30T13:05:18.876Z,48.70
2019-05-30T13:07:47.301Z,48.80
2019-05-30T13:10:16.403Z,49.30
2019-05-30T13:12:44.843Z,49.50
2019-05-30T13:15:14.218Z,49.30
2019-05-30T13:17:42.680Z,49.20
2019-05-30T13:20:11.712Z,49.10
2019-05-30T13:22:40.134Z,48.20
2019-05-30T13:25:09.689Z,48.20
2019-05-30T13:27:38.135Z,48.50
2019-05-30T13:30:08.391Z,47.80
2019-05-30T13:32:36.886Z,48.00
2019-05-30T13:35:07.616Z,48.00
2019-05-30T13:37:36.268Z,48.00
2019-05-30T13:40:23.627Z,47.70
2019-05-30T13:42:38.110Z,48.00
2019-05-30T13:45:11.646Z,48.50
2019-05-30T13:47:40.078Z,48.60
2019-05-30T13:50:13.476Z,48.20
2019-05-30T13:52:41.326Z,47.60
2019-05-30T13:55:10.673Z,47.60
2019-05-30T13:57:39.098Z,48.00
2019-05-30T14:00:10.408Z,47.60
2019-05-30T14:02:39.071Z,47.90
2019-05-30T14:05:08.394Z,48.10
2019-05-30T14:07:36.973Z,48.40
2019-05-30T14:10:08.438Z,48.40
2019-05-30T14:12:37.019Z,48.70
2019-05-30T14:15:14.233Z,49.00
2019-05-30T14:17:42.889Z,49.50
2019-05-30T14:20:12.435Z,49.80
2019-05-30T14:22:40.861Z,50.20
2019-05-30T14:25:10.051Z,49.90
2019-05-30T14:27:38.753Z,49.80
2019-05-30T14:30:09.009Z,50.40
2019-05-30T14:32:37.837Z,50.80
2019-05-30T14:35:11.523Z,50.80
2019-05-30T14:37:40.129Z,51.20
2019-05-30T14:40:11.031Z,51.50
2019-05-30T14:42:40.618Z,51.00
2019-05-30T14:45:10.667Z,51.30
2019-05-30T14:47:39.433Z,51.40
2019-05-30T14:50:11.063Z,51.40
2019-05-30T14:52:39.822Z,51.90
2019-05-30T14:55:09.234Z,52.30
2019-05-30T14:57:37.831Z,52.70
2019-05-30T15:00:09.271Z,52.20
2019-05-30T15:02:38.353Z,52.50
2019-05-30T15:05:07.600Z,52.50
2019-05-30T15:07:36.482Z,52.90
2019-05-30T15:10:10.671Z,53.40
2019-05-30T15:12:39.210Z,54.00
2019-05-30T15:15:12.418Z,53.70
2019-05-30T15:17:38.542Z,53.60
2019-05-30T15:20:10.309Z,54.00
2019-05-30T15:22:39.347Z,54.50
2019-05-30T15:25:08.145Z,54.50
2019-05-30T15:27:37.060Z,54.00
2019-05-30T15:30:10.638Z,54.60
2019-05-30T15:32:41.055Z,54.50
2019-05-30T15:35:10.975Z,54.60
2019-05-30T15:37:42.561Z,55.10
2019-05-30T15:40:12.912Z,55.30
2019-05-30T15:42:41.572Z,55.20
2019-05-30T15:45:11.916Z,55.00
2019-05-30T15:47:40.504Z,55.20
2019-05-30T15:50:11.958Z,55.30
2019-05-30T15:52:41.100Z,55.40
2019-05-30T15:55:11.392Z,55.40
2019-05-30T15:57:39.971Z,55.70
2019-05-30T16:00:10.007Z,55.60
2019-05-30T16:02:38.499Z,55.80
2019-05-30T16:05:10.474Z,56.20
2019-05-30T16:07:39.512Z,56.30
2019-05-30T16:10:12.796Z,56.50
2019-05-30T16:12:41.544Z,56.50
2019-05-30T16:15:13.349Z,56.60
2019-05-30T16:17:42.706Z,57.00
2019-05-30T16:20:11.766Z,57.30
2019-05-30T16:22:40.463Z,57.80
2019-05-30T16:25:09.522Z,57.80
2019-05-30T16:27:37.994Z,57.90
2019-05-30T16:30:07.983Z,58.10
2019-05-30T16:32:36.649Z,58.30
2019-05-30T16:35:07.731Z,58.70
2019-05-30T16:37:36.321Z,58.50
2019-05-30T16:40:08.851Z,59.20
2019-05-30T16:42:37.291Z,66.00
2019-05-30T16:45:07.705Z,67.00
2019-05-30T16:47:36.192Z,68.40
2019-05-30T16:50:09.396Z,69.10
2019-05-30T16:52:37.868Z,69.60
2019-05-30T16:55:09.331Z,70.00
2019-05-30T16:57:37.779Z,70.40
2019-05-30T17:00:11.795Z,70.80
2019-05-30T17:02:40.249Z,72.30
2019-05-30T17:05:09.225Z,72.40
2019-05-30T17:07:37.691Z,72.60
2019-05-30T17:10:21.400Z,73.10
2019-05-30T17:12:37.496Z,73.50
2019-05-30T17:15:09.552Z,73.70
2019-05-30T17:17:38.014Z,74.60
2019-05-30T17:20:08.009Z,75.40
2019-05-30T17:22:36.452Z,75.30
2019-05-30T17:25:08.182Z,75.00
2019-05-30T17:27:36.616Z,74.80
2019-05-30T17:30:12.755Z,75.60
2019-05-30T17:32:41.196Z,75.50
2019-05-30T17:35:10.892Z,75.30
2019-05-30T17:37:39.327Z,75.80
2019-05-30T17:40:10.735Z,76.30
2019-05-30T17:42:39.043Z,76.60
2019-05-30T17:45:09.429Z,76.70
2019-05-30T17:47:38.274Z,76.90
2019-05-30T17:50:07.841Z,77.10
2019-05-30T17:52:36.316Z,77.60
2019-05-30T17:55:08.260Z,78.30
2019-05-30T17:57:36.693Z,78.80
2019-05-30T18:00:10.325Z,79.10
2019-05-30T18:02:38.802Z,79.10
2019-05-30T18:05:08.080Z,79.30
2019-05-30T18:07:36.527Z,79.80
2019-05-30T18:10:06.882Z,80.40
2019-05-30T18:12:35.326Z,80.70
2019-05-30T18:15:10.716Z,81.10
2019-05-30T18:17:39.172Z,81.10
2019-05-30T18:20:11.009Z,81.50
2019-05-30T18:22:39.471Z,81.40
2019-05-30T18:25:09.256Z,81.50
2019-05-30T18:27:37.723Z,81.90
2019-05-30T18:30:07.940Z,82.30
2019-05-30T18:32:36.500Z,82.40
2019-05-30T18:35:07.203Z,82.50
2019-05-30T18:37:35.970Z,82.60
2019-05-30T18:40:06.837Z,82.60
2019-05-30T18:42:35.564Z,83.10
2019-05-30T18:45:11.077Z,83.00
2019-05-30T18:47:39.495Z,83.60
2019-05-30T18:50:09.169Z,83.90
2019-05-30T18:52:37.616Z,84.20
2019-05-30T18:55:09.289Z,84.30
2019-05-30T18:57:37.781Z,84.60
2019-05-30T19:00:12.453Z,84.90
2019-05-30T19:02:40.599Z,85.40
2019-05-30T19:05:09.703Z,85.80
2019-05-30T19:07:38.174Z,86.00
2019-05-30T19:10:07.161Z,86.50
2019-05-30T19:12:36.533Z,86.90
2019-05-30T19:15:06.410Z,87.30
2019-05-30T19:17:35.970Z,87.40
2019-05-30T19:20:07.832Z,87.80
2019-05-30T19:22:36.531Z,88.00
2019-05-30T19:25:08.643Z,88.50
2019-05-30T19:27:38.500Z,88.80
2019-05-30T19:30:09.838Z,89.00
2019-05-30T19:32:38.280Z,89.30
2019-05-30T19:35:08.148Z,89.80
2019-05-30T19:37:37.632Z,90.00
2019-05-30T19:40:07.126Z,90.40
2019-05-30T19:42:35.619Z,90.20
2019-05-30T19:45:09.050Z,90.30
2019-05-30T19:47:38.768Z,90.70
2019-05-30T19:50:08.539Z,90.70
2019-05-30T19:52:37.035Z,90.90
2019-05-30T19:55:06.169Z,91.10
2019-05-30T19:57:35.661Z,91.40
2019-05-30T20:00:06.997Z,91.60
2019-05-30T20:02:38.452Z,91.70
2019-05-30T20:05:07.730Z,91.90
2019-05-30T20:07:36.704Z,92.10
2019-05-30T20:10:06.392Z,92.30
2019-05-30T20:12:34.825Z,92.30
2019-05-30T20:15:04.518Z,92.40
2019-05-30T20:17:33.378Z,92.40
2019-05-30T20:20:02.041Z,92.60
2019-05-30T20:22:31.806Z,92.70
2019-05-30T20:25:00.439Z,92.80
2019-05-30T20:27:28.861Z,93.00
2019-05-30T20:29:57.293Z,93.20
2019-05-30T20:32:25.732Z,93.30
2019-05-30T20:34:54.147Z,93.30
2019-05-30T20:37:22.575Z,93.30
2019-05-30T20:39:51.011Z,93.50
2019-05-30T20:42:19.902Z,93.60
2019-05-30T20:44:48.461Z,93.70
2019-05-30T20:47:16.877Z,93.70
2019-05-30T20:49:45.310Z,94.00
2019-05-30T20:52:13.843Z,94.20
2019-05-30T20:54:43.455Z,94.60
2019-05-30T20:57:11.977Z,94.70
2019-05-30T20:59:40.692Z,94.80
2019-05-30T21:02:09.253Z,95.00
2019-05-30T21:04:38.806Z,95.40
2019-05-30T21:07:08.118Z,95.50
2019-05-30T21:09:38.006Z,95.70
2019-05-30T21:12:06.500Z,96.00
2019-05-30T21:14:37.341Z,96.20
2019-05-30T21:17:05.884Z,96.40
2019-05-30T21:19:35.780Z,96.50
2019-05-30T21:22:04.346Z,96.70
2019-05-30T21:24:32.787Z,96.70
2019-05-30T21:27:01.220Z,96.90
2019-05-30T21:29:29.655Z,97.10
2019-05-30T21:31:58.098Z,97.30
2019-05-30T21:34:26.801Z,97.60
2019-05-30T21:36:55.440Z,97.60
2019-05-30T21:39:23.919Z,97.70
2019-05-30T21:41:52.331Z,97.80
2019-05-30T21:44:20.760Z,98.00
2019-05-30T21:46:49.191Z,98.20
2019-05-30T21:49:17.638Z,98.50
2019-05-30T21:51:46.044Z,98.60
2019-05-30T21:54:14.473Z,98.70
2019-05-30T21:56:43.969Z,99.10
2019-05-30T21:59:12.521Z,98.80
2019-05-30T22:01:40.947Z,98.80
2019-05-30T22:04:09.450Z,98.90
2019-05-30T22:06:37.990Z,98.90
2019-05-30T22:09:07.554Z,99.00
2019-05-30T22:11:35.991Z,99.10
2019-05-30T22:14:05.041Z,99.20
2019-05-30T22:16:33.476Z,99.30
2019-05-30T22:19:01.905Z,99.40
2019-05-30T22:21:30.355Z,99.50
2019-05-30T22:23:58.789Z,99.70
2019-05-30T22:26:46.561Z,99.70
2019-05-30T22:29:14.980Z,99.90
2019-05-30T22:31:44.553Z,99.90
2019-05-30T22:34:13.206Z,99.90
2019-05-30T22:36:42.616Z,99.90
2019-05-30T22:39:11.242Z,99.90
2019-05-30T22:41:39.665Z,99.90
2019-05-30T22:44:08.091Z,99.90
2019-05-30T22:46:36.519Z,99.90
2019-05-30T22:49:05.033Z,99.90
2019-05-30T22:51:33.460Z,99.90
2019-05-30T22:54:01.874Z,99.90
2019-05-30T22:56:30.308Z,99.90
2019-05-30T22:58:58.733Z,99.90
2019-05-30T23:01:27.223Z,99.90
2019-05-30T23:03:55.648Z,99.90
2019-05-30T23:06:24.094Z,99.90
2019-05-30T23:08:52.652Z,99.90
2019-05-30T23:11:21.117Z,99.90
2019-05-30T23:13:49.971Z,99.90
2019-05-30T23:16:18.539Z,99.90
2019-05-30T23:18:46.959Z,99.90
2019-05-30T23:21:15.426Z,99.90
2019-05-30T23:23:43.862Z,99.90
2019-05-30T23:26:12.287Z,99.90
2019-05-30T23:28:40.716Z,99.90
2019-05-30T23:31:09.138Z,99.90
2019-05-30T23:33:37.598Z,99.90
2019-05-30T23:36:06.036Z,99.90
2019-05-30T23:38:34.490Z,99.90
2019-05-30T23:41:02.985Z,99.90
2019-05-30T23:43:31.408Z,99.90
2019-05-30T23:45:59.836Z,99.90
2019-05-30T23:48:28.297Z,99.90
2019-05-30T23:50:57.869Z,99.90
2019-05-30T23:53:26.524Z,99.90
2019-05-30T23:55:54.951Z,99.90
2019-05-30T23:58:23.364Z,99.90
